createdAt,value
2018-09-09T00:00:52.292Z,20.01
2018-09-09T00:03:20.918Z,20.02
2018-09-09T00:05:49.449Z,20.02
2018-09-09T00:08:17.929Z,20.01
2018-09-09T00:10:46.467Z,20.01
2018-09-09T00:13:15.027Z,20.00
2018-09-09T00:15:43.578Z,19.98
2018-09-09T00:18:12.062Z,19.98
2018-09-09T00:20:40.658Z,19.98
2018-09-09T00:23:09.168Z,19.99
2018-09-09T00:25:37.688Z,19.96
2018-09-09T00:28:06.387Z,19.95
2018-09-09T00:30:35.044Z,19.94
2018-09-09T00:33:03.501Z,19.92
2018-09-09T00:35:32.034Z,19.93
2018-09-09T00:38:00.522Z,19.91
2018-09-09T00:40:29.067Z,19.90
2018-09-09T00:42:57.543Z,19.89
2018-09-09T00:45:26.293Z,19.88
2018-09-09T00:47:54.875Z,19.86
2018-09-09T00:50:28.683Z,19.85
2018-09-09T00:53:02.338Z,19.82
2018-09-09T00:55:30.869Z,19.80
2018-09-09T00:57:59.344Z,19.80
2018-09-09T01:00:33.034Z,19.79
2018-09-09T01:03:01.463Z,19.80
2018-09-09T01:05:29.914Z,19.80
2018-09-09T01:07:58.391Z,19.77
2018-09-09T01:10:26.894Z,19.77
2018-09-09T01:12:55.399Z,19.76
2018-09-09T01:15:23.917Z,19.75
2018-09-09T01:17:52.434Z,19.75
2018-09-09T01:20:20.990Z,19.75
2018-09-09T01:22:49.513Z,19.75
2018-09-09T01:25:18.000Z,19.76
2018-09-09T01:27:46.487Z,19.77
2018-09-09T01:30:15.036Z,19.76
2018-09-09T01:32:43.494Z,19.73
2018-09-09T01:35:11.965Z,19.71
2018-09-09T01:37:40.419Z,19.71
2018-09-09T01:40:08.900Z,19.70
2018-09-09T01:42:37.419Z,19.70
2018-09-09T01:45:05.952Z,19.72
2018-09-09T01:47:34.519Z,19.73
2018-09-09T01:50:02.995Z,19.76
2018-09-09T01:52:31.479Z,19.77
2018-09-09T01:54:59.973Z,19.78
2018-09-09T01:57:28.469Z,19.79
2018-09-09T01:59:56.973Z,19.78
2018-09-09T02:02:25.493Z,19.80
2018-09-09T02:04:53.991Z,19.80
2018-09-09T02:07:22.512Z,19.78
2018-09-09T02:09:51.059Z,19.79
2018-09-09T02:12:19.527Z,19.79
2018-09-09T02:14:47.995Z,19.80
2018-09-09T02:17:16.468Z,19.79
2018-09-09T02:19:44.940Z,19.79
2018-09-09T02:22:13.498Z,19.77
2018-09-09T02:24:41.965Z,19.77
2018-09-09T02:27:10.427Z,19.77
2018-09-09T02:29:38.884Z,19.76
2018-09-09T02:32:07.524Z,19.75
2018-09-09T02:34:35.983Z,19.73
2018-09-09T02:37:04.440Z,19.69
2018-09-09T02:39:32.892Z,19.67
2018-09-09T02:42:01.352Z,19.59
2018-09-09T02:44:29.785Z,19.59
2018-09-09T02:46:58.260Z,19.57
2018-09-09T02:49:26.785Z,19.57
2018-09-09T02:51:55.260Z,19.60
2018-09-09T02:54:23.702Z,19.60
2018-09-09T02:56:52.144Z,19.62
2018-09-09T02:59:20.679Z,19.64
2018-09-09T03:01:49.183Z,19.67
2018-09-09T03:04:17.628Z,19.68
2018-09-09T03:06:46.113Z,19.69
2018-09-09T03:09:14.605Z,19.68
2018-09-09T03:11:43.074Z,19.68
2018-09-09T03:14:11.567Z,19.65
2018-09-09T03:16:39.980Z,19.64
2018-09-09T03:19:08.445Z,19.63
2018-09-09T03:21:36.893Z,19.62
2018-09-09T03:24:05.433Z,19.63
2018-09-09T03:26:33.897Z,19.64
2018-09-09T03:29:02.416Z,19.64
2018-09-09T03:31:30.881Z,19.66
2018-09-09T03:33:59.348Z,19.67
2018-09-09T03:36:27.814Z,19.67
2018-09-09T03:38:56.299Z,19.64
2018-09-09T03:41:24.815Z,19.64
2018-09-09T03:43:53.803Z,19.59
2018-09-09T03:46:22.282Z,19.55
2018-09-09T03:48:50.749Z,19.50
2018-09-09T03:51:19.185Z,19.52
2018-09-09T03:53:47.672Z,19.55
2018-09-09T03:56:16.161Z,19.57
2018-09-09T03:58:44.626Z,19.60
2018-09-09T04:01:13.106Z,19.63
2018-09-09T04:03:41.545Z,19.61
2018-09-09T04:06:10.045Z,19.64
2018-09-09T04:08:38.527Z,19.65
2018-09-09T04:11:08.968Z,19.66
2018-09-09T04:13:38.372Z,19.69
2018-09-09T04:16:07.239Z,19.73
2018-09-09T04:18:35.684Z,19.63
2018-09-09T04:21:04.164Z,19.79
2018-09-09T04:23:32.624Z,19.82
2018-09-09T04:26:01.106Z,19.84
2018-09-09T04:28:29.562Z,19.88
2018-09-09T04:30:58.034Z,19.90
2018-09-09T04:33:26.484Z,19.90
2018-09-09T04:35:54.962Z,19.83
2018-09-09T04:38:23.505Z,19.78
2018-09-09T04:40:51.973Z,19.73
2018-09-09T04:43:20.425Z,19.71
2018-09-09T04:45:48.861Z,19.69
2018-09-09T04:48:17.343Z,19.68
2018-09-09T04:50:45.795Z,19.71
2018-09-09T04:53:14.246Z,19.71
2018-09-09T04:55:42.688Z,19.74
2018-09-09T04:58:11.167Z,19.77
2018-09-09T05:00:39.639Z,19.80
2018-09-09T05:03:08.094Z,19.82
2018-09-09T05:05:36.626Z,19.84
2018-09-09T05:08:05.102Z,19.87
2018-09-09T05:10:33.735Z,19.87
2018-09-09T05:13:02.201Z,19.88
2018-09-09T05:15:30.700Z,19.90
2018-09-09T05:17:59.175Z,19.92
2018-09-09T05:20:27.686Z,19.92
2018-09-09T05:22:56.287Z,19.94
2018-09-09T05:25:24.780Z,19.96
2018-09-09T05:27:53.314Z,19.97
2018-09-09T05:30:21.912Z,19.96
2018-09-09T05:32:50.389Z,20.00
2018-09-09T05:35:19.120Z,20.02
2018-09-09T05:37:47.623Z,20.04
2018-09-09T05:40:16.155Z,20.08
2018-09-09T05:42:44.737Z,20.10
2018-09-09T05:45:13.310Z,19.66
2018-09-09T05:47:41.863Z,20.11
2018-09-09T05:50:10.404Z,20.13
2018-09-09T05:52:38.877Z,20.17
2018-09-09T05:55:07.381Z,20.20
2018-09-09T05:57:35.934Z,20.23
2018-09-09T06:00:04.643Z,20.26
2018-09-09T06:02:33.132Z,20.29
2018-09-09T06:05:01.661Z,20.33
2018-09-09T06:07:30.226Z,20.38
2018-09-09T06:09:58.794Z,20.36
2018-09-09T06:12:27.554Z,20.40
2018-09-09T06:14:56.052Z,20.47
2018-09-09T06:17:24.509Z,20.51
2018-09-09T06:19:53.004Z,20.61
2018-09-09T06:22:21.621Z,20.67
2018-09-09T06:24:50.224Z,20.77
2018-09-09T06:27:18.837Z,20.85
2018-09-09T06:29:47.374Z,20.94
2018-09-09T06:32:15.887Z,20.99
2018-09-09T06:34:44.467Z,21.06
2018-09-09T06:37:14.244Z,21.13
2018-09-09T06:39:43.578Z,21.20
2018-09-09T06:42:12.077Z,21.28
2018-09-09T06:44:40.706Z,21.36
2018-09-09T06:47:09.226Z,21.43
2018-09-09T06:49:37.948Z,21.52
2018-09-09T06:52:06.498Z,21.64
2018-09-09T06:54:35.023Z,21.74
2018-09-09T06:57:03.616Z,21.87
2018-09-09T06:59:32.068Z,22.00
2018-09-09T07:02:00.563Z,22.12
2018-09-09T07:04:29.099Z,22.22
2018-09-09T07:06:57.761Z,22.32
2018-09-09T07:09:26.306Z,22.42
2018-09-09T07:11:54.901Z,22.54
2018-09-09T07:14:23.376Z,22.66
2018-09-09T07:16:51.870Z,22.78
2018-09-09T07:19:20.411Z,22.91
2018-09-09T07:21:50.072Z,23.05
2018-09-09T07:24:18.590Z,23.23
2018-09-09T07:26:47.104Z,23.39
2018-09-09T07:29:15.600Z,23.49
2018-09-09T07:31:44.097Z,23.56
2018-09-09T07:34:12.830Z,23.68
2018-09-09T07:36:41.346Z,23.80
2018-09-09T07:39:09.937Z,23.94
2018-09-09T07:41:38.364Z,24.08
2018-09-09T07:44:06.931Z,24.25
2018-09-09T07:46:35.527Z,24.39
2018-09-09T07:49:04.061Z,24.57
2018-09-09T07:51:32.606Z,24.78
2018-09-09T07:54:01.080Z,24.95
2018-09-09T07:56:29.724Z,25.06
2018-09-09T07:58:58.239Z,25.17
2018-09-09T08:01:26.822Z,25.32
2018-09-09T08:03:55.404Z,25.47
2018-09-09T08:06:23.936Z,25.76
2018-09-09T08:08:52.485Z,26.17
2018-09-09T08:11:21.105Z,26.44
2018-09-09T08:13:49.722Z,26.67
2018-09-09T08:16:18.266Z,26.86
2018-09-09T08:18:46.792Z,27.07
2018-09-09T08:21:15.229Z,27.20
2018-09-09T08:23:43.828Z,27.35
2018-09-09T08:26:12.368Z,27.51
2018-09-09T08:28:44.377Z,27.77
2018-09-09T08:31:13.049Z,28.14
2018-09-09T08:33:41.552Z,28.47
2018-09-09T08:36:11.136Z,28.79
2018-09-09T08:38:39.720Z,29.09
2018-09-09T08:41:08.559Z,29.38
2018-09-09T08:43:37.179Z,29.67
2018-09-09T08:46:05.887Z,29.97
2018-09-09T08:48:34.947Z,30.25
2018-09-09T08:51:03.918Z,30.70
2018-09-09T08:53:32.756Z,31.26
2018-09-09T08:56:01.418Z,31.85
2018-09-09T08:58:30.048Z,32.44
2018-09-09T09:00:58.589Z,32.99
2018-09-09T09:03:27.093Z,33.24
2018-09-09T09:05:55.699Z,33.91
2018-09-09T09:08:24.176Z,34.90
2018-09-09T09:10:52.681Z,35.67
2018-09-09T09:13:21.401Z,36.44
2018-09-09T09:15:50.083Z,36.48
2018-09-09T09:18:18.647Z,36.82
2018-09-09T09:20:47.148Z,37.09
2018-09-09T09:23:15.675Z,38.00
2018-09-09T09:25:49.644Z,38.76
2018-09-09T09:28:18.479Z,39.27
2018-09-09T09:30:47.206Z,38.99
2018-09-09T09:33:15.882Z,38.52
2018-09-09T09:35:49.067Z,38.48
2018-09-09T09:38:18.786Z,38.80
2018-09-09T09:40:47.600Z,39.12
2018-09-09T09:43:16.116Z,39.37
2018-09-09T09:45:44.803Z,39.46
2018-09-09T09:48:13.476Z,39.20
2018-09-09T09:50:42.289Z,38.44
2018-09-09T09:53:10.900Z,37.59
2018-09-09T09:55:39.749Z,37.36
2018-09-09T09:58:08.384Z,38.48
2018-09-09T10:00:41.923Z,40.03
2018-09-09T10:03:10.380Z,41.18
2018-09-09T10:05:38.998Z,42.11
2018-09-09T10:08:07.502Z,42.30
2018-09-09T10:10:36.119Z,41.69
2018-09-09T10:13:04.688Z,40.89
2018-09-09T10:15:33.228Z,40.24
2018-09-09T10:18:01.856Z,39.96
2018-09-09T10:20:30.467Z,39.69
2018-09-09T10:22:58.974Z,39.95
2018-09-09T10:25:27.543Z,41.08
2018-09-09T10:27:56.019Z,41.76
2018-09-09T10:30:24.563Z,42.44
2018-09-09T10:32:53.054Z,43.48
2018-09-09T10:35:21.782Z,44.99
2018-09-09T10:37:50.354Z,45.67
2018-09-09T10:40:19.020Z,45.75
2018-09-09T10:42:47.582Z,46.39
2018-09-09T10:45:16.052Z,46.89
2018-09-09T10:47:44.554Z,46.80
2018-09-09T10:50:13.082Z,47.11
2018-09-09T10:52:41.542Z,47.17
2018-09-09T10:55:09.948Z,47.67
2018-09-09T10:57:38.431Z,47.85
2018-09-09T11:00:07.252Z,48.31
2018-09-09T11:02:35.755Z,48.62
2018-09-09T11:05:04.237Z,48.88
2018-09-09T11:07:32.808Z,49.37
2018-09-09T11:10:01.281Z,49.06
2018-09-09T11:12:32.318Z,47.82
2018-09-09T11:15:02.026Z,46.57
2018-09-09T11:17:31.396Z,45.48
2018-09-09T11:20:00.063Z,44.51
2018-09-09T11:22:29.278Z,43.97
2018-09-09T11:24:57.697Z,44.44
2018-09-09T11:27:26.390Z,44.52
2018-09-09T11:29:54.948Z,43.95
2018-09-09T11:32:23.433Z,43.93
2018-09-09T11:34:51.943Z,43.26
2018-09-09T11:37:20.400Z,43.15
2018-09-09T11:39:48.925Z,43.84
2018-09-09T11:42:17.420Z,43.71
2018-09-09T11:44:45.923Z,43.66
2018-09-09T11:47:14.372Z,43.50
2018-09-09T11:49:42.857Z,42.69
2018-09-09T11:52:11.404Z,41.97
2018-09-09T11:54:39.921Z,41.76
2018-09-09T11:57:08.456Z,41.97
2018-09-09T11:59:36.962Z,41.60
2018-09-09T12:02:05.467Z,41.05
2018-09-09T12:04:33.939Z,40.02
2018-09-09T12:07:02.408Z,39.40
2018-09-09T12:09:30.913Z,38.97
2018-09-09T12:11:59.338Z,38.58
2018-09-09T12:14:27.888Z,38.20
2018-09-09T12:16:56.371Z,37.60
2018-09-09T12:19:24.888Z,37.14
2018-09-09T12:21:53.344Z,36.49
2018-09-09T12:24:21.816Z,35.64
2018-09-09T12:26:50.285Z,35.21
2018-09-09T12:29:18.849Z,34.55
2018-09-09T12:31:47.305Z,34.21
2018-09-09T12:34:15.841Z,33.96
2018-09-09T12:36:44.273Z,33.85
2018-09-09T12:39:12.741Z,33.73
2018-09-09T12:41:41.197Z,33.63
2018-09-09T12:44:14.853Z,33.54
2018-09-09T12:46:48.614Z,33.47
2018-09-09T12:49:17.127Z,33.43
2018-09-09T12:51:45.592Z,33.39
2018-09-09T12:54:14.073Z,33.46
2018-09-09T12:56:42.532Z,33.57
2018-09-09T12:59:11.026Z,33.65
2018-09-09T13:01:39.532Z,33.76
2018-09-09T13:04:07.973Z,33.82
2018-09-09T13:06:36.399Z,33.76
2018-09-09T13:09:06.290Z,33.76
2018-09-09T13:11:34.753Z,33.69
2018-09-09T13:14:03.218Z,33.18
2018-09-09T13:16:31.730Z,33.42
2018-09-09T13:19:00.165Z,33.20
2018-09-09T13:21:28.659Z,33.04
2018-09-09T13:23:57.136Z,32.82
2018-09-09T13:26:25.654Z,32.45
2018-09-09T13:28:54.161Z,32.23
2018-09-09T13:31:22.662Z,32.14
2018-09-09T13:33:51.092Z,32.11
2018-09-09T13:36:19.596Z,32.05
2018-09-09T13:38:48.093Z,32.00
2018-09-09T13:41:16.562Z,31.99
2018-09-09T13:43:45.036Z,31.88
2018-09-09T13:46:13.569Z,31.74
2018-09-09T13:48:42.048Z,31.54
2018-09-09T13:51:10.504Z,31.42
2018-09-09T13:53:39.026Z,31.33
2018-09-09T13:56:07.558Z,31.21
2018-09-09T13:58:36.035Z,31.10
2018-09-09T14:01:04.493Z,30.96
2018-09-09T14:16:59.771Z,30.19
2018-09-09T14:19:38.878Z,30.08
2018-09-09T14:22:07.665Z,30.02
2018-09-09T14:24:36.116Z,30.09
2018-09-09T14:27:05.386Z,30.15
2018-09-09T14:29:34.774Z,30.16
2018-09-09T14:32:04.216Z,30.27
2018-09-09T14:34:32.721Z,30.26
2018-09-09T14:37:01.241Z,30.42
2018-09-09T14:39:29.752Z,30.45
2018-09-09T14:41:58.207Z,30.46
2018-09-09T14:44:26.695Z,30.44
2018-09-09T14:46:55.333Z,30.34
2018-09-09T14:49:23.914Z,30.24
2018-09-09T14:51:52.443Z,30.15
2018-09-09T14:54:20.948Z,30.05
2018-09-09T14:56:49.424Z,29.95
2018-09-09T14:59:17.952Z,29.92
2018-09-09T15:01:46.413Z,29.86
2018-09-09T15:04:14.951Z,29.79
2018-09-09T15:06:43.488Z,29.79
2018-09-09T15:09:12.975Z,29.75
2018-09-09T15:11:41.662Z,29.73
2018-09-09T15:14:10.351Z,29.72
2018-09-09T15:16:38.937Z,29.72
2018-09-09T15:19:07.526Z,29.73
2018-09-09T15:21:36.061Z,29.74
2018-09-09T15:24:04.505Z,29.75
2018-09-09T15:26:32.994Z,29.77
2018-09-09T15:29:01.465Z,29.80
2018-09-09T15:31:29.949Z,29.82
2018-09-09T15:33:58.448Z,29.83
2018-09-09T15:36:26.939Z,29.84
2018-09-09T15:38:55.503Z,29.82
2018-09-09T15:41:24.002Z,29.82
2018-09-09T15:43:52.458Z,29.79
2018-09-09T15:46:20.935Z,29.77
2018-09-09T15:48:49.466Z,29.73
2018-09-09T15:51:17.965Z,29.66
2018-09-09T15:53:46.448Z,29.63
2018-09-09T15:56:14.957Z,29.65
2018-09-09T15:58:43.434Z,29.58
2018-09-09T16:01:11.905Z,29.51
2018-09-09T16:03:40.351Z,29.48
2018-09-09T16:06:08.832Z,29.46
2018-09-09T16:08:37.328Z,29.42
2018-09-09T16:11:05.969Z,29.38
2018-09-09T16:13:34.460Z,29.29
2018-09-09T16:16:02.968Z,29.22
2018-09-09T16:18:31.446Z,29.22
2018-09-09T16:21:00.542Z,29.18
2018-09-09T16:23:29.086Z,29.09
2018-09-09T16:25:57.604Z,29.01
2018-09-09T16:28:26.066Z,28.91
2018-09-09T16:30:54.569Z,28.82
2018-09-09T16:33:23.056Z,28.71
2018-09-09T16:35:51.701Z,28.60
2018-09-09T16:38:20.163Z,28.53
2018-09-09T16:40:48.640Z,28.46
2018-09-09T16:43:17.126Z,28.40
2018-09-09T16:45:45.676Z,28.32
2018-09-09T16:48:14.517Z,28.21
2018-09-09T16:50:42.978Z,28.18
2018-09-09T16:53:11.481Z,28.13
2018-09-09T16:55:39.941Z,28.03
2018-09-09T16:58:08.519Z,27.92
2018-09-09T17:00:37.640Z,27.85
2018-09-09T17:03:06.459Z,27.81
2018-09-09T17:05:35.223Z,27.78
2018-09-09T17:08:03.708Z,27.71
2018-09-09T17:10:32.201Z,27.67
2018-09-09T17:13:00.803Z,27.09
2018-09-09T17:15:29.265Z,27.51
2018-09-09T17:17:57.829Z,27.45
2018-09-09T17:20:26.340Z,27.35
2018-09-09T17:22:54.853Z,27.28
2018-09-09T17:25:23.368Z,27.21
2018-09-09T17:27:51.819Z,27.09
2018-09-09T17:30:20.340Z,26.98
2018-09-09T17:32:48.823Z,26.92
2018-09-09T17:35:17.279Z,26.85
2018-09-09T17:37:45.759Z,26.81
2018-09-09T17:40:14.314Z,26.73
2018-09-09T17:42:43.097Z,26.65
2018-09-09T17:45:11.630Z,26.58
2018-09-09T17:47:40.103Z,26.28
2018-09-09T17:50:08.814Z,26.43
2018-09-09T17:52:37.310Z,26.35
2018-09-09T17:55:05.946Z,26.26
2018-09-09T17:57:34.542Z,26.10
2018-09-09T18:00:03.144Z,25.84
2018-09-09T18:02:31.672Z,25.87
2018-09-09T18:05:00.073Z,25.74
2018-09-09T18:07:28.533Z,25.62
2018-09-09T18:09:56.976Z,25.50
2018-09-09T18:12:25.390Z,25.37
2018-09-09T18:14:53.921Z,25.27
2018-09-09T18:17:22.481Z,25.17
2018-09-09T18:19:50.930Z,25.10
2018-09-09T18:22:19.499Z,25.04
2018-09-09T18:24:47.953Z,24.97
2018-09-09T18:27:16.395Z,24.89
2018-09-09T18:29:44.851Z,24.81
2018-09-09T18:32:14.324Z,24.74
2018-09-09T18:34:42.760Z,24.70
2018-09-09T18:37:11.235Z,24.64
2018-09-09T18:39:39.699Z,24.59
2018-09-09T18:42:08.383Z,24.55
2018-09-09T18:44:36.833Z,24.49
2018-09-09T18:47:05.384Z,24.43
2018-09-09T18:49:33.904Z,24.37
2018-09-09T18:52:02.365Z,24.32
2018-09-09T18:54:30.877Z,24.27
2018-09-09T18:56:59.356Z,24.22
2018-09-09T18:59:27.895Z,24.17
2018-09-09T19:01:56.747Z,24.13
2018-09-09T19:04:25.212Z,24.07
2018-09-09T19:06:53.740Z,24.02
2018-09-09T19:09:22.245Z,23.99
2018-09-09T19:11:50.743Z,23.96
2018-09-09T19:14:19.225Z,23.92
2018-09-09T19:16:47.689Z,23.86
2018-09-09T19:19:16.178Z,23.79
2018-09-09T19:21:44.690Z,23.74
2018-09-09T19:24:13.112Z,23.66
2018-09-09T19:26:41.560Z,23.59
2018-09-09T19:29:10.033Z,23.51
2018-09-09T19:31:38.515Z,23.46
2018-09-09T19:34:07.046Z,23.40
2018-09-09T19:36:35.716Z,23.35
2018-09-09T19:39:05.050Z,23.28
2018-09-09T19:41:33.512Z,23.23
2018-09-09T19:44:02.065Z,23.17
2018-09-09T19:46:30.531Z,23.10
2018-09-09T19:48:58.963Z,23.02
2018-09-09T19:51:27.395Z,22.96
2018-09-09T19:53:55.874Z,22.86
2018-09-09T19:56:24.334Z,22.79
2018-09-09T19:58:52.849Z,22.74
2018-09-09T20:01:21.312Z,22.42
2018-09-09T20:03:49.842Z,22.66
2018-09-09T20:06:18.321Z,22.61
2018-09-09T20:08:46.946Z,22.55
2018-09-09T20:11:15.442Z,22.51
2018-09-09T20:13:44.112Z,22.46
2018-09-09T20:16:12.728Z,22.42
2018-09-09T20:18:41.334Z,22.36
2018-09-09T20:21:10.417Z,22.34
2018-09-09T20:23:38.940Z,22.32
2018-09-09T20:26:07.482Z,22.26
2018-09-09T20:28:36.020Z,22.21
2018-09-09T20:31:05.118Z,22.15
2018-09-09T20:33:33.693Z,22.12
2018-09-09T20:36:02.260Z,22.10
2018-09-09T20:38:30.864Z,22.07
2018-09-09T20:40:59.536Z,22.03
2018-09-09T20:43:28.134Z,22.00
2018-09-09T20:45:56.850Z,21.96
2018-09-09T20:48:25.317Z,21.94
2018-09-09T20:50:53.862Z,21.89
2018-09-09T20:53:22.410Z,21.85
2018-09-09T20:55:50.978Z,21.82
2018-09-09T20:58:19.467Z,21.77
2018-09-09T21:00:48.135Z,21.71
2018-09-09T21:03:17.772Z,21.65
2018-09-09T21:05:46.311Z,21.60
2018-09-09T21:08:14.796Z,21.55
2018-09-09T21:10:43.377Z,21.51
2018-09-09T21:13:11.862Z,21.45
2018-09-09T21:15:40.366Z,21.40
2018-09-09T21:18:08.854Z,21.35
2018-09-09T21:20:37.310Z,21.30
2018-09-09T21:23:05.801Z,21.29
2018-09-09T21:25:34.312Z,21.23
2018-09-09T21:28:02.815Z,21.21
2018-09-09T21:30:31.289Z,21.17
2018-09-09T21:32:59.738Z,21.15
2018-09-09T21:35:28.230Z,21.11
2018-09-09T21:37:56.657Z,21.07
2018-09-09T21:40:25.092Z,21.03
2018-09-09T21:42:53.532Z,21.00
2018-09-09T21:45:21.953Z,20.98
2018-09-09T21:47:50.416Z,20.94
2018-09-09T21:50:18.848Z,20.91
2018-09-09T21:52:47.400Z,20.87
2018-09-09T21:55:15.941Z,20.84
2018-09-09T21:57:44.461Z,20.82
2018-09-09T22:00:13.826Z,20.80
2018-09-09T22:02:43.723Z,20.78
2018-09-09T22:05:12.234Z,20.76
2018-09-09T22:07:40.768Z,20.72
2018-09-09T22:10:09.331Z,20.71
2018-09-09T22:12:37.916Z,20.67
2018-09-09T22:15:06.464Z,20.64
2018-09-09T22:17:35.111Z,20.53
2018-09-09T22:20:03.813Z,20.63
2018-09-09T22:22:32.410Z,20.61
2018-09-09T22:25:00.940Z,20.60
2018-09-09T22:27:29.489Z,20.57
2018-09-09T22:29:58.062Z,20.56
2018-09-09T22:32:26.553Z,20.52
2018-09-09T22:34:55.168Z,20.51
2018-09-09T22:37:23.725Z,20.48
2018-09-09T22:39:52.184Z,20.49
2018-09-09T22:42:21.062Z,20.47
2018-09-09T22:44:49.648Z,20.45
2018-09-09T22:47:18.335Z,20.44
2018-09-09T22:49:46.784Z,20.44
2018-09-09T22:52:15.547Z,20.44
2018-09-09T22:54:44.052Z,20.44
2018-09-09T22:57:12.712Z,20.42
2018-09-09T22:59:41.143Z,20.42
2018-09-09T23:02:09.617Z,20.42
2018-09-09T23:04:38.081Z,20.41
2018-09-09T23:07:06.491Z,20.41
2018-09-09T23:09:34.961Z,20.39
2018-09-09T23:12:03.385Z,20.40
2018-09-09T23:14:31.874Z,20.40
2018-09-09T23:17:00.305Z,19.36
2018-09-09T23:19:28.767Z,20.42
2018-09-09T23:21:57.209Z,20.41
2018-09-09T23:24:25.713Z,20.42
2018-09-09T23:26:54.117Z,20.42
2018-09-09T23:29:22.561Z,20.43
2018-09-09T23:31:50.995Z,20.43
2018-09-09T23:34:19.479Z,20.44
2018-09-09T23:36:47.889Z,20.43
2018-09-09T23:39:16.359Z,20.43
2018-09-09T23:41:44.809Z,20.45
2018-09-09T23:44:13.287Z,20.46
2018-09-09T23:46:41.750Z,20.48
2018-09-09T23:49:10.184Z,20.50
2018-09-09T23:51:38.656Z,20.49
2018-09-09T23:54:07.225Z,20.50
2018-09-09T23:56:35.740Z,20.54
2018-09-09T23:59:04.298Z,20.58
